Time;durP1;ratioP1;P1;durP2;ratioP2;P2;SDS_P1;SDS_P2;PMS_P1;PMS_P2;Temp;Humidity;BMP_temperature;BMP_pressure;BME280_temperature;BME280_humidity;BME280_pressure;Samples;Min_cycle;Max_cycle;Signal;HPM_P1;HPM_P2
2021/04/15 00:01:27;;;;;;;;;;;;;;;;;;4956262;28;19961;-78
2021/04/15 00:03:58;;;;;;;;;;;;;;;;;;4956083;28;20379;-77
2021/04/15 00:06:26;;;;;;;;;;;;;;;;;;4953268;28;20367;-78
2021/04/15 00:08:52;;;;;;;;;;;;;;;;;;4971668;28;19965;-78
2021/04/15 00:11:19;;;;;;;;;;;;;;;;;;4973582;28;19922;-78
2021/04/15 00:13:46;;;;;;;;;;;;;;;;;;4973106;28;19965;-78
2021/04/15 00:16:12;;;;;;;;;;;;;;;;;;4973822;28;20017;-78
2021/04/15 00:18:39;;;;;;;;;;;;;;;;;;4973492;28;19928;-78
2021/04/15 00:21:06;;;;;;;;;;;;;;;;;;4957434;28;20371;-78
2021/04/15 00:23:33;;;;;;;;;;;;;;;;;;4973613;28;19965;-78
2021/04/15 00:25:59;;;;;;;;;;;;;;;;;;4988031;28;19972;-78
2021/04/15 00:28:26;;;;;;;;;;;;;;;;;;4956487;28;19926;-78
2021/04/15 00:30:52;;;;;;;;;;;;;;;;;;4973216;28;20041;-78
2021/04/15 00:33:19;;;;;;;;;;;;;;;;;;4955787;28;20307;-78
2021/04/15 00:35:46;;;;;;;;;;;;;;;;;;4972918;28;19953;-77
2021/04/15 00:38:13;;;;;;;;;;;;;;;;;;4973255;28;19922;-78
2021/04/15 00:40:39;;;;;;;;;;;;;;;;;;4972348;28;20009;-78
2021/04/15 00:43:07;;;;;;;;;;;;;;;;;;4956246;28;19980;-78
2021/04/15 00:45:34;;;;;;;;;;;;;;;;;;4972865;28;19972;-78
2021/04/15 00:48:00;;;;;;;;;;;;;;;;;;4972869;28;20025;-78
2021/04/15 00:50:27;;;;;;;;;;;;;;;;;;4974412;28;20383;-77
2021/04/15 00:52:54;;;;;;;;;;;;;;;;;;4955576;28;20013;-77
2021/04/15 00:55:21;;;;;;;;;;;;;;;;;;4972207;28;19926;-77
2021/04/15 00:57:51;;;;;;;;;;;;;;;;;;4972374;28;20028;-77
2021/04/15 01:00:17;;;;;;;;;;;;;;;;;;4955318;28;20037;-77
2021/04/15 01:02:44;;;;;;;;;;;;;;;;;;4955249;28;19972;-77
2021/04/15 01:05:11;;;;;;;;;;;;;;;;;;4972555;28;19922;-77
2021/04/15 01:07:37;;;;;;;;;;;;;;;;;;4954635;28;20749;-78
2021/04/15 01:10:04;;;;;;;;;;;;;;;;;;4955024;28;19965;-78
2021/04/15 01:12:31;;;;;;;;;;;;;;;;;;4955061;28;20364;-77
2021/04/15 01:14:57;;;;;;;;;;;;;;;;;;4971881;28;20676;-77
2021/04/15 01:17:24;;;;;;;;;;;;;;;;;;4971790;28;20009;-77
2021/04/15 01:19:50;;;;;;;;;;;;;;;;;;4954571;28;20014;-77
2021/04/15 01:22:17;;;;;;;;;;;;;;;;;;4960178;28;19972;-77
2021/04/15 01:24:43;;;;;;;;;;;;;;;;;;4973063;28;20008;-77
2021/04/15 01:27:10;;;;;;;;;;;;;;;;;;4975687;28;20320;-77
2021/04/15 01:29:37;;;;;;;;;;;;;;;;;;4976087;28;20020;-77
2021/04/15 01:32:03;;;;;;;;;;;;;;;;;;4958362;28;19926;-77
2021/04/15 01:34:30;;;;;;;;;;;;;;;;;;4958389;28;20343;-77
2021/04/15 01:36:56;;;;;;;;;;;;;;;;;;4975615;28;19922;-77
2021/04/15 01:39:23;;;;;;;;;;;;;;;;;;4957760;28;19926;-77
2021/04/15 01:41:50;;;;;;;;;;;;;;;;;;4955923;28;19985;-77
2021/04/15 01:44:16;;;;;;;;;;;;;;;;;;4956570;28;20013;-77
2021/04/15 01:46:43;;;;;;;;;;;;;;;;;;4957193;28;20414;-77
2021/04/15 01:49:10;;;;;;;;;;;;;;;;;;4958896;28;19980;-77
2021/04/15 01:51:36;;;;;;;;;;;;;;;;;;4955458;28;19925;-77
2021/04/15 01:54:05;;;;;;;;;;;;;;;;;;4989926;28;19926;-77
2021/04/15 01:59:24;;;;;;;;;;;;;;;;;;4973471;28;19921;-78
2021/04/15 02:01:51;;;;;;;;;;;;;;;;;;4957156;28;20441;-78
2021/04/15 02:04:18;;;;;;;;;;;;;;;;;;4974050;28;20024;-78
2021/04/15 02:06:44;;;;;;;;;;;;;;;;;;4973702;28;19950;-78
2021/04/15 02:09:11;;;;;;;;;;;;;;;;;;4974953;28;20379;-78
2021/04/15 02:11:39;;;;;;;;;;;;;;;;;;4975620;28;19980;-78
2021/04/15 02:14:06;;;;;;;;;;;;;;;;;;4957418;28;19988;-78
2021/04/15 02:16:34;;;;;;;;;;;;;;;;;;4958094;28;19926;-78
2021/04/15 02:19:01;;;;;;;;;;;;;;;;;;4975871;28;19930;-79
2021/04/15 02:21:29;;;;;;;;;;;;;;;;;;4974337;28;19922;-79
2021/04/15 02:23:55;;;;;;;;;;;;;;;;;;4975491;28;19976;-78
2021/04/15 02:26:22;;;;;;;;;;;;;;;;;;4975530;28;19977;-79
2021/04/15 02:28:49;;;;;;;;;;;;;;;;;;4974371;28;20016;-79
2021/04/15 02:31:15;;;;;;;;;;;;;;;;;;4974306;28;20016;-79
2021/04/15 02:33:42;;;;;;;;;;;;;;;;;;4974045;28;19926;-79
2021/04/15 02:36:08;;;;;;;;;;;;;;;;;;4974215;28;19960;-79
2021/04/15 02:38:35;;;;;;;;;;;;;;;;;;4974113;28;19965;-79
2021/04/15 02:41:02;;;;;;;;;;;;;;;;;;4974135;28;19932;-79
2021/04/15 02:43:30;;;;;;;;;;;;;;;;;;4974204;28;19969;-79
2021/04/15 02:45:57;;;;;;;;;;;;;;;;;;4974613;28;19926;-79
2021/04/15 02:48:25;;;;;;;;;;;;;;;;;;4974387;28;19969;-79
2021/04/15 02:50:52;;;;;;;;;;;;;;;;;;4974381;28;19961;-79
2021/04/15 02:53:19;;;;;;;;;;;;;;;;;;4957139;28;20352;-79
2021/04/15 02:55:45;;;;;;;;;;;;;;;;;;4974008;28;19922;-79
2021/04/15 02:58:12;;;;;;;;;;;;;;;;;;4956584;28;19929;-79
2021/04/15 03:00:39;;;;;;;;;;;;;;;;;;4957647;28;19984;-79
2021/04/15 03:03:05;;;;;;;;;;;;;;;;;;4958162;28;19965;-79
2021/04/15 03:05:34;;;;;;;;;;;;;;;;;;4975271;28;19929;-79
2021/04/15 03:08:00;;;;;;;;;;;;;;;;;;4989889;28;19977;-79
2021/04/15 03:10:27;;;;;;;;;;;;;;;;;;4974495;28;19977;-79
2021/04/15 03:12:56;;;;;;;;;;;;;;;;;;4974376;28;19973;-79
2021/04/15 03:15:22;;;;;;;;;;;;;;;;;;4980521;28;19922;-79
2021/04/15 03:17:49;;;;;;;;;;;;;;;;;;4992159;28;19979;-79
2021/04/15 03:20:16;;;;;;;;;;;;;;;;;;4974888;28;19965;-79
2021/04/15 03:22:42;;;;;;;;;;;;;;;;;;4989754;28;20005;-79
2021/04/15 03:25:10;;;;;;;;;;;;;;;;;;4957739;28;20594;-79
2021/04/15 03:27:36;;;;;;;;;;;;;;;;;;4975095;28;20071;-79
2021/04/15 03:30:03;;;;;;;;;;;;;;;;;;4957720;28;20021;-79
2021/04/15 03:32:29;;;;;;;;;;;;;;;;;;4989754;28;19932;-79
2021/04/15 03:34:57;;;;;;;;;;;;;;;;;;4974517;28;19929;-80
2021/04/15 03:37:23;;;;;;;;;;;;;;;;;;4982987;28;19981;-79
2021/04/15 03:39:50;;;;;;;;;;;;;;;;;;4956957;28;19967;-79
2021/04/15 03:42:17;;;;;;;;;;;;;;;;;;4957367;28;20117;-79
2021/04/15 03:44:43;;;;;;;;;;;;;;;;;;4974220;28;19953;-79
2021/04/15 03:47:12;;;;;;;;;;;;;;;;;;4956721;28;20279;-79
2021/04/15 03:49:38;;;;;;;;;;;;;;;;;;4957207;28;19922;-79
2021/04/15 03:52:05;;;;;;;;;;;;;;;;;;4980329;28;19952;-79
2021/04/15 03:54:32;;;;;;;;;;;;;;;;;;4973834;28;19944;-79
2021/04/15 03:56:58;;;;;;;;;;;;;;;;;;4988655;28;19968;-79
2021/04/15 03:59:26;;;;;;;;;;;;;;;;;;4969061;28;20037;-79
2021/04/15 04:01:52;;;;;;;;;;;;;;;;;;4953590;29;20016;-79
2021/04/15 04:04:19;;;;;;;;;;;;;;;;;;4955167;29;19927;-80
2021/04/15 04:06:46;;;;;;;;;;;;;;;;;;4954638;29;20013;-79
2021/04/15 04:09:13;;;;;;;;;;;;;;;;;;4954735;29;19966;-79
2021/04/15 04:11:39;;;;;;;;;;;;;;;;;;4954674;29;20008;-79
2021/04/15 04:14:06;;;;;;;;;;;;;;;;;;4954335;29;20017;-79
2021/04/15 04:16:33;;;;;;;;;;;;;;;;;;4953773;29;20008;-79
2021/04/15 04:18:59;;;;;;;;;;;;;;;;;;4954293;28;20017;-80
2021/04/15 04:21:27;;;;;;;;;;;;;;;;;;4953856;29;19966;-80
2021/04/15 04:23:53;;;;;;;;;;;;;;;;;;4954008;29;20002;-81
2021/04/15 04:26:20;;;;;;;;;;;;;;;;;;4961115;28;19978;-80
2021/04/15 04:28:50;;;;;;;;;;;;;;;;;;4945662;28;19926;-79
2021/04/15 04:31:17;;;;;;;;;;;;;;;;;;4957075;28;20009;-79
2021/04/15 04:33:43;;;;;;;;;;;;;;;;;;4936903;29;19923;-79
2021/04/15 04:36:10;;;;;;;;;;;;;;;;;;4970944;28;19932;-79
2021/04/15 04:38:37;;;;;;;;;;;;;;;;;;4941915;28;19973;-79
2021/04/15 04:41:03;;;;;;;;;;;;;;;;;;4960597;28;19997;-79
2021/04/15 04:43:30;;;;;;;;;;;;;;;;;;4951949;28;20009;-79
2021/04/15 04:45:57;;;;;;;;;;;;;;;;;;4940030;28;20661;-79
2021/04/15 04:48:24;;;;;;;;;;;;;;;;;;4944291;29;19926;-79
2021/04/15 04:50:51;;;;;;;;;;;;;;;;;;4954205;28;19929;-79
2021/04/15 04:53:17;;;;;;;;;;;;;;;;;;4960312;28;20806;-79
2021/04/15 04:55:44;;;;;;;;;;;;;;;;;;4938915;28;19925;-79
2021/04/15 04:58:11;;;;;;;;;;;;;;;;;;4944374;28;19933;-80
2021/04/15 05:00:42;;;;;;;;;;;;;;;;;;4953678;28;19937;-80
2021/04/15 05:03:09;;;;;;;;;;;;;;;;;;4955044;28;19988;-81
2021/04/15 05:05:36;;;;;;;;;;;;;;;;;;4971573;28;19934;-81
2021/04/15 05:08:02;;;;;;;;;;;;;;;;;;4971984;28;20017;-80
2021/04/15 05:10:31;;;;;;;;;;;;;;;;;;4972694;28;20025;-82
2021/04/15 05:12:58;;;;;;;;;;;;;;;;;;4973281;28;19922;-83
2021/04/15 05:15:25;;;;;;;;;;;;;;;;;;4972900;28;19926;-83
2021/04/15 05:17:52;;;;;;;;;;;;;;;;;;4980168;28;19997;-81
2021/04/15 05:20:20;;;;;;;;;;;;;;;;;;4940222;28;20047;-82
2021/04/15 05:22:47;;;;;;;;;;;;;;;;;;4959512;28;20013;-86
2021/04/15 05:25:14;;;;;;;;;;;;;;;;;;4975881;28;19921;-85
2021/04/15 05:27:40;;;;;;;;;;;;;;;;;;4976766;28;19926;-80
2021/04/15 05:30:08;;;;;;;;;;;;;;;;;;4959182;28;19922;-79
2021/04/15 05:32:35;;;;;;;;;;;;;;;;;;4971173;28;20036;-79
2021/04/15 05:35:01;;;;;;;;;;;;;;;;;;4953024;28;19973;-78
2021/04/15 05:37:29;;;;;;;;;;;;;;;;;;4952156;28;19974;-79
2021/04/15 05:39:56;;;;;;;;;;;;;;;;;;4952291;28;20108;-78
2021/04/15 05:42:22;;;;;;;;;;;;;;;;;;4973264;28;20406;-77
2021/04/15 05:44:49;;;;;;;;;;;;;;;;;;4952017;28;19926;-79
2021/04/15 05:47:16;;;;;;;;;;;;;;;;;;4953266;28;20398;-79
2021/04/15 05:49:42;;;;;;;;;;;;;;;;;;4970803;28;20168;-79
2021/04/15 05:52:09;;;;;;;;;;;;;;;;;;4969618;28;19968;-79
2021/04/15 05:54:35;;;;;;;;;;;;;;;;;;4968921;28;20020;-79
2021/04/15 05:57:03;;;;;;;;;;;;;;;;;;4953006;28;20697;-79
2021/04/15 05:59:29;;;;;;;;;;;;;;;;;;4951590;28;19968;-79
2021/04/15 06:01:56;;;;;;;;;;;;;;;;;;4953078;28;20036;-79
2021/04/15 06:04:23;;;;;;;;;;;;;;;;;;4954971;28;19921;-79
2021/04/15 06:06:49;;;;;;;;;;;;;;;;;;4954845;28;19972;-79
2021/04/15 06:09:16;;;;;;;;;;;;;;;;;;4972490;28;19993;-79
2021/04/15 06:11:43;;;;;;;;;;;;;;;;;;4957531;28;20016;-78
2021/04/15 06:14:10;;;;;;;;;;;;;;;;;;4958922;28;20004;-78
2021/04/15 06:16:37;;;;;;;;;;;;;;;;;;4975396;28;19969;-78
2021/04/15 06:19:03;;;;;;;;;;;;;;;;;;4975557;28;19961;-78
2021/04/15 06:21:30;;;;;;;;;;;;;;;;;;4970603;28;20024;-78
2021/04/15 06:23:57;;;;;;;;;;;;;;;;;;4978352;28;19949;-78
2021/04/15 06:26:23;;;;;;;;;;;;;;;;;;4976764;28;19980;-79
2021/04/15 06:28:50;;;;;;;;;;;;;;;;;;4957728;28;19929;-78
2021/04/15 06:31:16;;;;;;;;;;;;;;;;;;4957890;28;20363;-79
2021/04/15 06:33:43;;;;;;;;;;;;;;;;;;4965588;28;20005;-79
2021/04/15 06:36:10;;;;;;;;;;;;;;;;;;4974839;28;19953;-79
2021/04/15 06:38:37;;;;;;;;;;;;;;;;;;4957505;28;20395;-79
2021/04/15 06:41:03;;;;;;;;;;;;;;;;;;4958055;28;19975;-79
2021/04/15 06:43:39;;;;;;;;;;;;;;;;;;4958620;28;19985;-79
2021/04/15 06:46:06;;;;;;;;;;;;;;;;;;4957497;28;20009;-79
2021/04/15 06:48:32;;;;;;;;;;;;;;;;;;4975252;28;19927;-79
2021/04/15 06:51:02;;;;;;;;;;;;;;;;;;4958401;28;19921;-79
2021/04/15 06:53:29;;;;;;;;;;;;;;;;;;4957367;28;19961;-79
2021/04/15 06:55:56;;;;;;;;;;;;;;;;;;4957146;28;20004;-79
2021/04/15 06:58:23;;;;;;;;;;;;;;;;;;4957034;28;19968;-79
2021/04/15 07:00:49;;;;;;;;;;;;;;;;;;4956768;28;19973;-79
2021/04/15 07:03:16;;;;;;;;;;;;;;;;;;4956825;28;20037;-79
2021/04/15 07:05:43;;;;;;;;;;;;;;;;;;4974426;28;19972;-79
2021/04/15 07:08:09;;;;;;;;;;;;;;;;;;4957826;28;19965;-79
2021/04/15 07:10:36;;;;;;;;;;;;;;;;;;4974784;28;19969;-79
2021/04/15 07:13:03;;;;;;;;;;;;;;;;;;4957445;28;19922;-79
2021/04/15 07:15:29;;;;;;;;;;;;;;;;;;4956718;28;19930;-79
2021/04/15 07:17:56;;;;;;;;;;;;;;;;;;4954497;28;20025;-79
2021/04/15 07:20:23;;;;;;;;;;;;;;;;;;4954090;28;20288;-79
2021/04/15 07:22:49;;;;;;;;;;;;;;;;;;4954751;28;19957;-79
2021/04/15 07:25:16;;;;;;;;;;;;;;;;;;4973365;28;19980;-80
2021/04/15 07:27:42;;;;;;;;;;;;;;;;;;4956085;28;19922;-79
2021/04/15 07:30:09;;;;;;;;;;;;;;;;;;4973375;28;20008;-79
2021/04/15 07:32:36;;;;;;;;;;;;;;;;;;4957278;28;20009;-80
2021/04/15 07:35:03;;;;;;;;;;;;;;;;;;4974172;28;20020;-80
2021/04/15 07:37:29;;;;;;;;;;;;;;;;;;4956264;28;19930;-79
2021/04/15 07:39:56;;;;;;;;;;;;;;;;;;4973804;28;19970;-79
2021/04/15 07:42:23;;;;;;;;;;;;;;;;;;4972699;28;19965;-80
2021/04/15 07:44:49;;;;;;;;;;;;;;;;;;4954420;28;20694;-79
2021/04/15 07:47:16;;;;;;;;;;;;;;;;;;4954068;28;19969;-80
2021/04/15 07:49:43;;;;;;;;;;;;;;;;;;4954116;28;19933;-80
2021/04/15 07:52:09;;;;;;;;;;;;;;;;;;4961332;28;19934;-81
2021/04/15 07:54:36;;;;;;;;;;;;;;;;;;4972264;28;20020;-80
2021/04/15 07:57:03;;;;;;;;;;;;;;;;;;4955270;28;20355;-80
2021/04/15 07:59:29;;;;;;;;;;;;;;;;;;4973756;28;20448;-80
2021/04/15 08:01:56;;;;;;;;;;;;;;;;;;4956452;28;20017;-80
2021/04/15 08:04:23;;;;;;;;;;;;;;;;;;4955399;28;19932;-80
2021/04/15 08:06:50;;;;;;;;;;;;;;;;;;4955091;28;20016;-80
2021/04/15 08:09:17;;;;;;;;;;;;;;;;;;4954924;28;20008;-80
2021/04/15 08:11:44;;;;;;;;;;;;;;;;;;4971967;28;19922;-80
2021/04/15 08:14:10;;;;;;;;;;;;;;;;;;4957263;28;19969;-83
2021/04/15 08:16:37;;;;;;;;;;;;;;;;;;4956557;28;19965;-84
2021/04/15 08:19:03;;;;;;;;;;;;;;;;;;4956759;28;20021;-84
2021/04/15 08:21:30;;;;;;;;;;;;;;;;;;4956679;28;20407;-84
2021/04/15 08:23:57;;;;;;;;;;;;;;;;;;4974165;28;19961;-84
2021/04/15 08:26:23;;;;;;;;;;;;;;;;;;4973729;28;20446;-83
2021/04/15 08:28:50;;;;;;;;;;;;;;;;;;4956828;28;19922;-84
2021/04/15 08:31:17;;;;;;;;;;;;;;;;;;4956472;28;19977;-84
2021/04/15 08:33:44;;;;;;;;;;;;;;;;;;4956212;28;19929;-84
2021/04/15 08:36:10;;;;;;;;;;;;;;;;;;4973232;28;20347;-84
2021/04/15 08:38:37;;;;;;;;;;;;;;;;;;4973912;28;20008;-84
2021/04/15 08:41:03;;;;;;;;;;;;;;;;;;4955738;28;20013;-84
2021/04/15 08:43:30;;;;;;;;;;;;;;;;;;4955903;28;20024;-82
2021/04/15 08:45:57;;;;;;;;;;;;;;;;;;4956277;28;19922;-82
2021/04/15 08:48:24;;;;;;;;;;;;;;;;;;4954158;28;19945;-82
2021/04/15 08:50:51;;;;;;;;;;;;;;;;;;4957637;28;19929;-82
2021/04/15 08:53:17;;;;;;;;;;;;;;;;;;4972754;28;19980;-83
2021/04/15 08:55:44;;;;;;;;;;;;;;;;;;4956425;28;19965;-81
2021/04/15 08:58:11;;;;;;;;;;;;;;;;;;4956297;28;20017;-83
2021/04/15 09:00:39;;;;;;;;;;;;;;;;;;4973179;28;19949;-83
2021/04/15 09:03:06;;;;;;;;;;;;;;;;;;4956161;28;20415;-82
2021/04/15 09:05:35;;;;;;;;;;;;;;;;;;4956067;28;19926;-83
2021/04/15 09:08:02;;;;;;;;;;;;;;;;;;4955775;28;20367;-82
2021/04/15 09:10:28;;;;;;;;;;;;;;;;;;4956338;28;19928;-82
2021/04/15 09:12:55;;;;;;;;;;;;;;;;;;4956751;28;19922;-82
2021/04/15 09:15:21;;;;;;;;;;;;;;;;;;4973354;28;20729;-82
2021/04/15 09:17:48;;;;;;;;;;;;;;;;;;4956097;28;19973;-82
2021/04/15 09:20:15;;;;;;;;;;;;;;;;;;4956325;28;19926;-83
2021/04/15 09:22:41;;;;;;;;;;;;;;;;;;4956128;28;19972;-83
2021/04/15 09:25:09;;;;;;;;;;;;;;;;;;4955842;28;19973;-83
2021/04/15 09:27:36;;;;;;;;;;;;;;;;;;4972957;28;19965;-83
2021/04/15 09:30:02;;;;;;;;;;;;;;;;;;4956316;28;19928;-82
2021/04/15 09:32:29;;;;;;;;;;;;;;;;;;4956009;28;19961;-82
2021/04/15 09:34:56;;;;;;;;;;;;;;;;;;4972763;28;20371;-83
2021/04/15 09:37:22;;;;;;;;;;;;;;;;;;4955516;28;20013;-83
2021/04/15 09:39:49;;;;;;;;;;;;;;;;;;4956674;28;19922;-82
2021/04/15 09:42:16;;;;;;;;;;;;;;;;;;4956281;28;20013;-83
2021/04/15 09:44:43;;;;;;;;;;;;;;;;;;4955703;28;20025;-83
2021/04/15 09:47:10;;;;;;;;;;;;;;;;;;4959439;28;19965;-83
2021/04/15 09:49:37;;;;;;;;;;;;;;;;;;4959704;28;20339;-83
2021/04/15 09:52:03;;;;;;;;;;;;;;;;;;4981332;28;19975;-83
2021/04/15 09:54:30;;;;;;;;;;;;;;;;;;4979483;28;19969;-82
2021/04/15 09:56:56;;;;;;;;;;;;;;;;;;4958884;28;20320;-83
2021/04/15 09:59:23;;;;;;;;;;;;;;;;;;4975978;28;19928;-82
2021/04/15 10:01:50;;;;;;;;;;;;;;;;;;4959341;28;19961;-83
2021/04/15 10:04:16;;;;;;;;;;;;;;;;;;4959731;28;19926;-82
2021/04/15 10:06:43;;;;;;;;;;;;;;;;;;4959480;28;19976;-82
2021/04/15 10:09:10;;;;;;;;;;;;;;;;;;4977422;28;20024;-82
2021/04/15 10:11:36;;;;;;;;;;;;;;;;;;4960503;28;19922;-82
2021/04/15 10:14:03;;;;;;;;;;;;;;;;;;4959780;28;20013;-82
2021/04/15 10:16:29;;;;;;;;;;;;;;;;;;4959308;28;20334;-82
2021/04/15 10:19:01;;;;;;;;;;;;;;;;;;4959225;28;19972;-82
2021/04/15 10:21:27;;;;;;;;;;;;;;;;;;4969679;28;19985;-82
2021/04/15 10:23:54;;;;;;;;;;;;;;;;;;4959264;28;20448;-82
2021/04/15 10:26:21;;;;;;;;;;;;;;;;;;4976577;28;19977;-83
2021/04/15 10:28:47;;;;;;;;;;;;;;;;;;4959545;28;19928;-83
2021/04/15 10:31:14;;;;;;;;;;;;;;;;;;4959648;28;19972;-84
2021/04/15 10:33:41;;;;;;;;;;;;;;;;;;4976701;28;19922;-83
2021/04/15 10:36:07;;;;;;;;;;;;;;;;;;4977177;28;19969;-83
2021/04/15 10:38:34;;;;;;;;;;;;;;;;;;4976496;28;19922;-83
2021/04/15 10:41:01;;;;;;;;;;;;;;;;;;4959254;28;19921;-84
2021/04/15 10:43:27;;;;;;;;;;;;;;;;;;4958588;28;20359;-83
2021/04/15 10:45:54;;;;;;;;;;;;;;;;;;4959072;28;19928;-83
2021/04/15 10:48:25;;;;;;;;;;;;;;;;;;4958854;28;19961;-83
2021/04/15 10:50:52;;;;;;;;;;;;;;;;;;4976401;28;19964;-82
2021/04/15 10:53:20;;;;;;;;;;;;;;;;;;4976297;28;19977;-83
2021/04/15 10:55:47;;;;;;;;;;;;;;;;;;4958615;28;19926;-83
2021/04/15 10:58:13;;;;;;;;;;;;;;;;;;4975825;28;19961;-83
2021/04/15 11:00:40;;;;;;;;;;;;;;;;;;4975943;28;20522;-83
2021/04/15 11:03:06;;;;;;;;;;;;;;;;;;4958517;28;19922;-83
2021/04/15 11:05:33;;;;;;;;;;;;;;;;;;4958321;28;20006;-83
2021/04/15 11:08:00;;;;;;;;;;;;;;;;;;4975558;28;19972;-84
2021/04/15 11:10:26;;;;;;;;;;;;;;;;;;4958769;28;20029;-83
2021/04/15 11:12:53;;;;;;;;;;;;;;;;;;4958525;28;20627;-84
2021/04/15 11:15:22;;;;;;;;;;;;;;;;;;4975289;28;19973;-84
2021/04/15 11:17:49;;;;;;;;;;;;;;;;;;4975215;28;20358;-84
2021/04/15 11:20:16;;;;;;;;;;;;;;;;;;4958457;28;20438;-83
2021/04/15 11:22:44;;;;;;;;;;;;;;;;;;4958532;28;19957;-84
2021/04/15 11:25:11;;;;;;;;;;;;;;;;;;4958227;28;20375;-84
2021/04/15 11:27:38;;;;;;;;;;;;;;;;;;4975204;28;19976;-84
2021/04/15 11:30:04;;;;;;;;;;;;;;;;;;4958527;28;19957;-83
2021/04/15 11:32:31;;;;;;;;;;;;;;;;;;4975384;28;20572;-84
2021/04/15 11:34:58;;;;;;;;;;;;;;;;;;4958093;28;19941;-84
2021/04/15 11:37:25;;;;;;;;;;;;;;;;;;4957737;28;20012;-84
2021/04/15 11:39:51;;;;;;;;;;;;;;;;;;4957619;28;19965;-84
2021/04/15 11:42:27;;;;;;;;;;;;;;;;;;4975098;28;20346;-84
2021/04/15 11:44:54;;;;;;;;;;;;;;;;;;4958159;28;19972;-84
2021/04/15 11:47:21;;;;;;;;;;;;;;;;;;4957950;28;19977;-84
2021/04/15 11:49:48;;;;;;;;;;;;;;;;;;4958139;28;20012;-84
2021/04/15 11:52:14;;;;;;;;;;;;;;;;;;4975021;28;19925;-84
2021/04/15 11:54:41;;;;;;;;;;;;;;;;;;4974759;28;19984;-84
2021/04/15 11:57:08;;;;;;;;;;;;;;;;;;4957292;28;20025;-84
2021/04/15 11:59:38;;;;;;;;;;;;;;;;;;4957594;28;20029;-85
2021/04/15 12:02:05;;;;;;;;;;;;;;;;;;4974726;28;19981;-84
2021/04/15 12:04:31;;;;;;;;;;;;;;;;;;4974402;28;19921;-83
2021/04/15 12:06:58;;;;;;;;;;;;;;;;;;4956177;28;20021;-84
2021/04/15 12:09:27;;;;;;;;;;;;;;;;;;4957168;28;20019;-85
2021/04/15 12:11:53;;;;;;;;;;;;;;;;;;4957232;28;20683;-84
2021/04/15 12:14:20;;;;;;;;;;;;;;;;;;4974693;28;19968;-84
2021/04/15 12:16:46;;;;;;;;;;;;;;;;;;4957256;28;19953;-84
2021/04/15 12:19:13;;;;;;;;;;;;;;;;;;4956893;28;19922;-86
2021/04/15 12:21:40;;;;;;;;;;;;;;;;;;4956510;28;19976;-82
2021/04/15 12:24:07;;;;;;;;;;;;;;;;;;4956768;28;20529;-87
2021/04/15 12:26:41;;;;;;;;;;;;;;;;;;4957575;28;19922;-85
2021/04/15 12:29:08;;;;;;;;;;;;;;;;;;4957469;28;20050;-85
2021/04/15 12:31:52;;;;;;;;;;;;;;;;;;4977952;28;19972;-86
2021/04/15 12:34:19;;;;;;;;;;;;;;;;;;4969196;28;20394;-82
2021/04/15 12:36:46;;;;;;;;;;;;;;;;;;4980708;28;19945;-83
2021/04/15 12:39:13;;;;;;;;;;;;;;;;;;4957108;28;19984;-83
2021/04/15 12:41:39;;;;;;;;;;;;;;;;;;4974015;28;19961;-83
2021/04/15 12:44:06;;;;;;;;;;;;;;;;;;4974048;28;19997;-84
2021/04/15 12:46:33;;;;;;;;;;;;;;;;;;4986407;28;20318;-82
2021/04/15 12:48:59;;;;;;;;;;;;;;;;;;4959204;28;19928;-86
2021/04/15 12:51:26;;;;;;;;;;;;;;;;;;4956752;28;19961;-83
2021/04/15 12:53:53;;;;;;;;;;;;;;;;;;4956903;28;19926;-82
2021/04/15 12:56:19;;;;;;;;;;;;;;;;;;4960960;28;19928;-85
2021/04/15 12:58:46;;;;;;;;;;;;;;;;;;4980200;28;20032;-81
2021/04/15 13:01:13;;;;;;;;;;;;;;;;;;4976609;28;19960;-79
2021/04/15 13:03:40;;;;;;;;;;;;;;;;;;4969185;28;19923;-84
2021/04/15 13:06:07;;;;;;;;;;;;;;;;;;4959201;28;19929;-83
2021/04/15 13:08:34;;;;;;;;;;;;;;;;;;4956878;28;19926;-81
2021/04/15 13:11:01;;;;;;;;;;;;;;;;;;4985991;28;19991;-83
2021/04/15 13:13:28;;;;;;;;;;;;;;;;;;4992804;28;19921;-82
2021/04/15 13:15:55;;;;;;;;;;;;;;;;;;4988973;28;19933;-83
2021/04/15 13:18:22;;;;;;;;;;;;;;;;;;4988248;28;19973;-85
2021/04/15 13:20:48;;;;;;;;;;;;;;;;;;4968978;28;20005;-84
2021/04/15 13:23:15;;;;;;;;;;;;;;;;;;4956406;28;19961;-84
2021/04/15 13:25:41;;;;;;;;;;;;;;;;;;4969795;28;20451;-81
2021/04/15 13:28:11;;;;;;;;;;;;;;;;;;4973367;28;20391;-82
2021/04/15 13:30:38;;;;;;;;;;;;;;;;;;4975912;28;19932;-84
2021/04/15 13:33:12;;;;;;;;;;;;;;;;;;4976569;28;19971;-83
2021/04/15 13:35:38;;;;;;;;;;;;;;;;;;4956336;28;19972;-81
2021/04/15 13:38:05;;;;;;;;;;;;;;;;;;4973437;28;20544;-83
2021/04/15 13:40:33;;;;;;;;;;;;;;;;;;4983572;28;19922;-81
2021/04/15 13:43:06;;;;;;;;;;;;;;;;;;4963699;28;19973;-87
2021/04/15 13:45:33;;;;;;;;;;;;;;;;;;4991877;28;19922;-85
2021/04/15 13:47:59;;;;;;;;;;;;;;;;;;4969722;28;19922;-82
2021/04/15 13:50:26;;;;;;;;;;;;;;;;;;4974115;28;19922;-83
2021/04/15 13:52:53;;;;;;;;;;;;;;;;;;4956837;28;19984;-84
2021/04/15 13:55:20;;;;;;;;;;;;;;;;;;4974286;28;19953;-84
2021/04/15 13:57:47;;;;;;;;;;;;;;;;;;4982246;28;21313;-82
2021/04/15 14:00:14;;;;;;;;;;;;;;;;;;4974584;28;20012;-85
2021/04/15 14:02:41;;;;;;;;;;;;;;;;;;4974868;28;19934;-85
2021/04/15 14:05:08;;;;;;;;;;;;;;;;;;4989107;28;19926;-85
2021/04/15 14:07:37;;;;;;;;;;;;;;;;;;4956148;28;19972;-83
2021/04/15 14:10:08;;;;;;;;;;;;;;;;;;4956736;28;19922;-84
2021/04/15 14:12:34;;;;;;;;;;;;;;;;;;4958846;28;19922;-88
2021/04/15 14:15:01;;;;;;;;;;;;;;;;;;4962344;28;20005;-84
2021/04/15 14:17:28;;;;;;;;;;;;;;;;;;4977428;28;19973;-81
2021/04/15 14:19:56;;;;;;;;;;;;;;;;;;4972908;28;20380;-82
2021/04/15 14:22:34;;;;;;;;;;;;;;;;;;4949272;28;19922;-85
2021/04/15 14:25:01;;;;;;;;;;;;;;;;;;4964618;28;20354;-76
2021/04/15 14:27:29;;;;;;;;;;;;;;;;;;4960573;28;19973;-75
2021/04/15 14:32:27;;;;;;;;;;;;;;;;;;4971911;28;20272;-83
2021/04/15 14:34:56;;;;;;;;;;;;;;;;;;4966435;28;19972;-78
2021/04/15 14:37:26;;;;;;;;;;;;;;;;;;4964461;28;19929;-84
2021/04/15 14:39:54;;;;;;;;;;;;;;;;;;4960332;28;19953;-86
2021/04/15 14:42:22;;;;;;;;;;;;;;;;;;4964368;28;19926;-85
2021/04/15 14:44:48;;;;;;;;;;;;;;;;;;4967651;28;19976;-83
2021/04/15 14:47:21;;;;;;;;;;;;;;;;;;4977291;28;19926;-83
2021/04/15 14:49:56;;;;;;;;;;;;;;;;;;4978513;28;19922;-83
2021/04/15 14:52:25;;;;;;;;;;;;;;;;;;4985834;28;20291;-84
2021/04/15 14:55:06;;;;;;;;;;;;;;;;;;4985086;28;19926;-85
2021/04/15 14:57:39;;;;;;;;;;;;;;;;;;4981995;28;20020;-86
2021/04/15 15:00:08;;;;;;;;;;;;;;;;;;4983000;28;20371;-86
2021/04/15 15:02:35;;;;;;;;;;;;;;;;;;4977647;28;19930;-85
2021/04/15 15:05:04;;;;;;;;;;;;;;;;;;4960341;28;19969;-86
2021/04/15 15:07:38;;;;;;;;;;;;;;;;;;4975725;28;20012;-81
2021/04/15 15:10:06;;;;;;;;;;;;;;;;;;4985076;28;19934;-84
2021/04/15 15:12:33;;;;;;;;;;;;;;;;;;4959136;28;20012;-82
2021/04/15 15:15:01;;;;;;;;;;;;;;;;;;4963824;28;20302;-85
2021/04/15 15:17:31;;;;;;;;;;;;;;;;;;4976694;28;20423;-84
2021/04/15 15:20:13;;;;;;;;;;;;;;;;;;4987289;28;19922;-84
2021/04/15 15:22:40;;;;;;;;;;;;;;;;;;4959159;28;19968;-75
2021/04/15 15:25:07;;;;;;;;;;;;;;;;;;4978389;28;20511;-75
2021/04/15 15:27:34;;;;;;;;;;;;;;;;;;4981547;28;19957;-74
2021/04/15 15:30:00;;;;;;;;;;;;;;;;;;4978478;28;19961;-74
2021/04/15 15:32:27;;;;;;;;;;;;;;;;;;4963475;28;20048;-74
2021/04/15 15:34:54;;;;;;;;;;;;;;;;;;4979236;28;19929;-74
2021/04/15 15:37:42;;;;;;;;;;;;;;;;;;4994204;28;20016;-84
2021/04/15 15:40:10;;;;;;;;;;;;;;;;;;4976824;28;19976;-84
2021/04/15 15:42:39;;;;;;;;;;;;;;;;;;4992522;28;19960;-83
2021/04/15 15:45:06;;;;;;;;;;;;;;;;;;4979745;28;20291;-76
2021/04/15 15:47:33;;;;;;;;;;;;;;;;;;4964227;28;19929;-75
2021/04/15 15:50:00;;;;;;;;;;;;;;;;;;4962008;28;19926;-75
2021/04/15 15:52:26;;;;;;;;;;;;;;;;;;4982260;28;20715;-75
2021/04/15 15:54:53;;;;;;;;;;;;;;;;;;4980844;28;20009;-75
2021/04/15 15:57:20;;;;;;;;;;;;;;;;;;4962700;28;20386;-76
2021/04/15 15:59:46;;;;;;;;;;;;;;;;;;4960321;28;19965;-77
2021/04/15 16:02:13;;;;;;;;;;;;;;;;;;4969789;28;20034;-83
2021/04/15 16:04:44;;;;;;;;;;;;;;;;;;4970128;28;19961;-84
2021/04/15 16:07:12;;;;;;;;;;;;;;;;;;4964814;28;20004;-84
2021/04/15 16:09:45;;;;;;;;;;;;;;;;;;4977198;28;19971;-84
2021/04/15 16:12:18;;;;;;;;;;;;;;;;;;4974573;28;19997;-85
2021/04/15 16:14:49;;;;;;;;;;;;;;;;;;4971621;28;19975;-84
2021/04/15 16:17:22;;;;;;;;;;;;;;;;;;4985020;28;19930;-84
2021/04/15 16:19:48;;;;;;;;;;;;;;;;;;4975176;28;19969;-84
2021/04/15 16:22:18;;;;;;;;;;;;;;;;;;4974150;28;20412;-77
2021/04/15 16:24:45;;;;;;;;;;;;;;;;;;4980475;28;19972;-77
2021/04/15 16:27:12;;;;;;;;;;;;;;;;;;4960441;28;19961;-84
2021/04/15 16:29:40;;;;;;;;;;;;;;;;;;4966453;28;19928;-84
2021/04/15 16:32:07;;;;;;;;;;;;;;;;;;4963684;28;19926;-77
2021/04/15 16:34:35;;;;;;;;;;;;;;;;;;4959359;28;20260;-77
2021/04/15 16:37:06;;;;;;;;;;;;;;;;;;4977274;28;19922;-84
2021/04/15 16:39:32;;;;;;;;;;;;;;;;;;4981597;28;19997;-84
2021/04/15 16:42:10;;;;;;;;;;;;;;;;;;4957212;28;20726;-84
2021/04/15 16:44:37;;;;;;;;;;;;;;;;;;4956780;28;19925;-84
2021/04/15 16:47:05;;;;;;;;;;;;;;;;;;4973218;28;20280;-84
2021/04/15 16:49:32;;;;;;;;;;;;;;;;;;4973251;28;19922;-84
2021/04/15 16:52:02;;;;;;;;;;;;;;;;;;4960331;28;19922;-84